sensor_id;sensor_type;location;lat;lon;timestamp;P1;durP1;ratioP1;P2;durP2;ratioP2
44147;SDS011;29810;55.848;37.368;2022-12-29T00:01:37;6.25;;;2.22;;
44147;SDS011;29810;55.848;37.368;2022-12-29T00:04:39;4.57;;;2.15;;
44147;SDS011;29810;55.848;37.368;2022-12-29T00:07:40;7.00;;;2.40;;
44147;SDS011;29810;55.848;37.368;2022-12-29T00:10:42;6.00;;;2.15;;
44147;SDS011;29810;55.848;37.368;2022-12-29T00:13:46;5.00;;;1.85;;
44147;SDS011;29810;55.848;37.368;2022-12-29T00:17:08;5.95;;;1.90;;
44147;SDS011;29810;55.848;37.368;2022-12-29T00:20:09;6.22;;;1.48;;
44147;SDS011;29810;55.848;37.368;2022-12-29T00:23:30;3.53;;;1.35;;
44147;SDS011;29810;55.848;37.368;2022-12-29T00:30:23;5.07;;;1.30;;
44147;SDS011;29810;55.848;37.368;2022-12-29T00:33:43;6.32;;;1.60;;
44147;SDS011;29810;55.848;37.368;2022-12-29T00:37:03;6.25;;;1.45;;
44147;SDS011;29810;55.848;37.368;2022-12-29T00:40:05;3.80;;;1.48;;
44147;SDS011;29810;55.848;37.368;2022-12-29T00:43:27;4.50;;;1.40;;
44147;SDS011;29810;55.848;37.368;2022-12-29T00:46:47;7.28;;;1.20;;
44147;SDS011;29810;55.848;37.368;2022-12-29T00:49:49;4.55;;;1.40;;
44147;SDS011;29810;55.848;37.368;2022-12-29T00:52:51;7.30;;;1.60;;
44147;SDS011;29810;55.848;37.368;2022-12-29T00:55:53;5.03;;;1.60;;
44147;SDS011;29810;55.848;37.368;2022-12-29T00:58:54;4.90;;;1.60;;
44147;SDS011;29810;55.848;37.368;2022-12-29T01:01:56;4.55;;;1.50;;
44147;SDS011;29810;55.848;37.368;2022-12-29T01:04:58;5.90;;;1.55;;
44147;SDS011;29810;55.848;37.368;2022-12-29T01:07:59;5.90;;;1.40;;
44147;SDS011;29810;55.848;37.368;2022-12-29T01:11:07;4.75;;;1.35;;
44147;SDS011;29810;55.848;37.368;2022-12-29T01:14:11;5.53;;;1.60;;
44147;SDS011;29810;55.848;37.368;2022-12-29T01:17:13;4.37;;;1.33;;
44147;SDS011;29810;55.848;37.368;2022-12-29T01:20:15;6.22;;;1.35;;
44147;SDS011;29810;55.848;37.368;2022-12-29T01:23:16;5.95;;;1.90;;
44147;SDS011;29810;55.848;37.368;2022-12-29T01:26:20;5.15;;;1.60;;
44147;SDS011;29810;55.848;37.368;2022-12-29T01:29:21;8.10;;;1.40;;
44147;SDS011;29810;55.848;37.368;2022-12-29T01:32:23;4.60;;;1.70;;
44147;SDS011;29810;55.848;37.368;2022-12-29T01:35:24;7.35;;;1.92;;
44147;SDS011;29810;55.848;37.368;2022-12-29T01:38:26;5.93;;;1.52;;
44147;SDS011;29810;55.848;37.368;2022-12-29T01:41:28;5.87;;;1.77;;
44147;SDS011;29810;55.848;37.368;2022-12-29T01:50:58;6.10;;;1.83;;
44147;SDS011;29810;55.848;37.368;2022-12-29T01:54:00;8.48;;;2.03;;
44147;SDS011;29810;55.848;37.368;2022-12-29T01:57:07;6.87;;;1.90;;
44147;SDS011;29810;55.848;37.368;2022-12-29T02:00:12;6.47;;;1.77;;
44147;SDS011;29810;55.848;37.368;2022-12-29T02:03:16;6.90;;;1.70;;
44147;SDS011;29810;55.848;37.368;2022-12-29T02:06:25;8.40;;;2.05;;
44147;SDS011;29810;55.848;37.368;2022-12-29T02:09:30;7.97;;;2.17;;
44147;SDS011;29810;55.848;37.368;2022-12-29T02:12:33;8.18;;;2.20;;
44147;SDS011;29810;55.848;37.368;2022-12-29T02:15:47;6.22;;;1.70;;
44147;SDS011;29810;55.848;37.368;2022-12-29T02:19:19;6.50;;;1.45;;
44147;SDS011;29810;55.848;37.368;2022-12-29T02:36:02;4.57;;;1.52;;
44147;SDS011;29810;55.848;37.368;2022-12-29T02:39:29;8.63;;;2.28;;
44147;SDS011;29810;55.848;37.368;2022-12-29T02:46:38;8.30;;;1.83;;
44147;SDS011;29810;55.848;37.368;2022-12-29T02:49:57;4.35;;;1.80;;
44147;SDS011;29810;55.848;37.368;2022-12-29T02:53:01;10.57;;;1.90;;
44147;SDS011;29810;55.848;37.368;2022-12-29T02:56:08;3.92;;;1.73;;
44147;SDS011;29810;55.848;37.368;2022-12-29T02:59:10;4.90;;;1.62;;
44147;SDS011;29810;55.848;37.368;2022-12-29T03:02:19;5.90;;;1.75;;
44147;SDS011;29810;55.848;37.368;2022-12-29T03:05:49;6.95;;;1.67;;
44147;SDS011;29810;55.848;37.368;2022-12-29T03:09:36;6.00;;;1.73;;
44147;SDS011;29810;55.848;37.368;2022-12-29T03:16:17;6.43;;;1.50;;
44147;SDS011;29810;55.848;37.368;2022-12-29T03:19:35;6.97;;;1.73;;
44147;SDS011;29810;55.848;37.368;2022-12-29T03:22:43;8.02;;;2.10;;
44147;SDS011;29810;55.848;37.368;2022-12-29T03:25:54;6.07;;;1.95;;
44147;SDS011;29810;55.848;37.368;2022-12-29T03:28:59;6.60;;;1.85;;
44147;SDS011;29810;55.848;37.368;2022-12-29T03:32:03;9.35;;;2.10;;
44147;SDS011;29810;55.848;37.368;2022-12-29T03:35:06;8.27;;;1.60;;
44147;SDS011;29810;55.848;37.368;2022-12-29T03:38:21;8.07;;;2.05;;
44147;SDS011;29810;55.848;37.368;2022-12-29T03:41:30;6.95;;;1.70;;
44147;SDS011;29810;55.848;37.368;2022-12-29T03:44:37;4.62;;;1.40;;
44147;SDS011;29810;55.848;37.368;2022-12-29T03:47:42;6.90;;;2.05;;
44147;SDS011;29810;55.848;37.368;2022-12-29T03:50:44;6.65;;;1.77;;
44147;SDS011;29810;55.848;37.368;2022-12-29T03:53:46;7.25;;;1.73;;
44147;SDS011;29810;55.848;37.368;2022-12-29T03:57:56;7.00;;;2.00;;
44147;SDS011;29810;55.848;37.368;2022-12-29T04:01:05;8.45;;;2.05;;
44147;SDS011;29810;55.848;37.368;2022-12-29T04:04:08;3.62;;;1.58;;
44147;SDS011;29810;55.848;37.368;2022-12-29T04:07:10;8.15;;;1.98;;
44147;SDS011;29810;55.848;37.368;2022-12-29T04:10:14;6.10;;;1.62;;
44147;SDS011;29810;55.848;37.368;2022-12-29T04:13:15;6.82;;;2.15;;
44147;SDS011;29810;55.848;37.368;2022-12-29T04:16:18;8.38;;;2.20;;
44147;SDS011;29810;55.848;37.368;2022-12-29T04:19:19;8.10;;;2.00;;
44147;SDS011;29810;55.848;37.368;2022-12-29T04:22:21;7.00;;;2.33;;
44147;SDS011;29810;55.848;37.368;2022-12-29T04:25:23;6.18;;;2.12;;
44147;SDS011;29810;55.848;37.368;2022-12-29T04:28:26;6.72;;;2.10;;
44147;SDS011;29810;55.848;37.368;2022-12-29T04:31:28;6.60;;;1.90;;
44147;SDS011;29810;55.848;37.368;2022-12-29T04:34:30;7.53;;;2.08;;
44147;SDS011;29810;55.848;37.368;2022-12-29T04:37:31;5.03;;;1.62;;
44147;SDS011;29810;55.848;37.368;2022-12-29T04:40:33;6.32;;;2.03;;
44147;SDS011;29810;55.848;37.368;2022-12-29T04:43:35;6.68;;;1.95;;
44147;SDS011;29810;55.848;37.368;2022-12-29T04:46:40;7.47;;;2.00;;
44147;SDS011;29810;55.848;37.368;2022-12-29T04:49:41;6.30;;;1.83;;
44147;SDS011;29810;55.848;37.368;2022-12-29T04:52:44;7.40;;;2.28;;
44147;SDS011;29810;55.848;37.368;2022-12-29T04:55:48;8.98;;;2.33;;
44147;SDS011;29810;55.848;37.368;2022-12-29T04:58:53;7.20;;;2.60;;
44147;SDS011;29810;55.848;37.368;2022-12-29T05:02:16;8.55;;;2.47;;
44147;SDS011;29810;55.848;37.368;2022-12-29T05:05:19;4.80;;;2.17;;
44147;SDS011;29810;55.848;37.368;2022-12-29T05:08:23;6.05;;;2.62;;
44147;SDS011;29810;55.848;37.368;2022-12-29T05:11:31;8.15;;;2.10;;
44147;SDS011;29810;55.848;37.368;2022-12-29T05:14:33;5.60;;;2.60;;
44147;SDS011;29810;55.848;37.368;2022-12-29T05:17:36;7.62;;;3.22;;
44147;SDS011;29810;55.848;37.368;2022-12-29T05:21:29;9.50;;;2.30;;
44147;SDS011;29810;55.848;37.368;2022-12-29T05:24:33;7.07;;;2.87;;
44147;SDS011;29810;55.848;37.368;2022-12-29T05:27:35;8.68;;;2.70;;
44147;SDS011;29810;55.848;37.368;2022-12-29T05:30:36;8.70;;;3.03;;
44147;SDS011;29810;55.848;37.368;2022-12-29T05:33:38;8.45;;;2.95;;
44147;SDS011;29810;55.848;37.368;2022-12-29T05:36:40;6.90;;;2.95;;
44147;SDS011;29810;55.848;37.368;2022-12-29T05:39:43;9.18;;;3.15;;
44147;SDS011;29810;55.848;37.368;2022-12-29T05:42:45;9.10;;;3.40;;
44147;SDS011;29810;55.848;37.368;2022-12-29T05:45:50;11.80;;;3.62;;
44147;SDS011;29810;55.848;37.368;2022-12-29T05:48:54;8.05;;;4.05;;
44147;SDS011;29810;55.848;37.368;2022-12-29T05:51:56;12.63;;;4.10;;
44147;SDS011;29810;55.848;37.368;2022-12-29T05:54:58;9.13;;;4.15;;
44147;SDS011;29810;55.848;37.368;2022-12-29T05:58:00;14.25;;;4.82;;
44147;SDS011;29810;55.848;37.368;2022-12-29T06:01:02;9.38;;;4.03;;
44147;SDS011;29810;55.848;37.368;2022-12-29T06:04:04;10.77;;;4.30;;
44147;SDS011;29810;55.848;37.368;2022-12-29T06:07:06;8.45;;;4.05;;
44147;SDS011;29810;55.848;37.368;2022-12-29T06:10:08;11.18;;;4.45;;
44147;SDS011;29810;55.848;37.368;2022-12-29T06:13:10;12.13;;;4.12;;
44147;SDS011;29810;55.848;37.368;2022-12-29T06:16:14;8.13;;;4.22;;
44147;SDS011;29810;55.848;37.368;2022-12-29T06:19:16;10.27;;;4.50;;
44147;SDS011;29810;55.848;37.368;2022-12-29T06:22:20;11.73;;;4.47;;
44147;SDS011;29810;55.848;37.368;2022-12-29T06:25:24;9.32;;;3.83;;
44147;SDS011;29810;55.848;37.368;2022-12-29T06:28:37;10.02;;;4.62;;
44147;SDS011;29810;55.848;37.368;2022-12-29T06:31:40;8.00;;;4.25;;
44147;SDS011;29810;55.848;37.368;2022-12-29T06:34:44;7.32;;;3.58;;
44147;SDS011;29810;55.848;37.368;2022-12-29T06:37:46;8.75;;;3.33;;
44147;SDS011;29810;55.848;37.368;2022-12-29T06:40:47;8.93;;;3.67;;
44147;SDS011;29810;55.848;37.368;2022-12-29T06:43:50;9.88;;;3.58;;
44147;SDS011;29810;55.848;37.368;2022-12-29T06:46:54;8.35;;;3.72;;
44147;SDS011;29810;55.848;37.368;2022-12-29T06:49:55;7.93;;;3.45;;
44147;SDS011;29810;55.848;37.368;2022-12-29T06:52:57;8.23;;;4.18;;
44147;SDS011;29810;55.848;37.368;2022-12-29T06:55:58;9.95;;;4.15;;
44147;SDS011;29810;55.848;37.368;2022-12-29T06:59:00;10.82;;;4.22;;
44147;SDS011;29810;55.848;37.368;2022-12-29T07:02:02;9.30;;;4.45;;
44147;SDS011;29810;55.848;37.368;2022-12-29T07:05:04;9.23;;;4.25;;
44147;SDS011;29810;55.848;37.368;2022-12-29T07:08:08;9.07;;;4.40;;
44147;SDS011;29810;55.848;37.368;2022-12-29T07:11:10;11.25;;;4.30;;
44147;SDS011;29810;55.848;37.368;2022-12-29T07:14:12;9.52;;;4.15;;
44147;SDS011;29810;55.848;37.368;2022-12-29T07:17:14;7.60;;;4.20;;
44147;SDS011;29810;55.848;37.368;2022-12-29T07:20:16;9.48;;;4.12;;
44147;SDS011;29810;55.848;37.368;2022-12-29T07:23:18;11.07;;;4.30;;
44147;SDS011;29810;55.848;37.368;2022-12-29T07:26:20;9.63;;;3.50;;
44147;SDS011;29810;55.848;37.368;2022-12-29T07:29:22;9.32;;;4.12;;
44147;SDS011;29810;55.848;37.368;2022-12-29T07:32:25;7.97;;;4.47;;
44147;SDS011;29810;55.848;37.368;2022-12-29T07:35:26;9.13;;;4.10;;
44147;SDS011;29810;55.848;37.368;2022-12-29T07:38:28;7.72;;;3.90;;
44147;SDS011;29810;55.848;37.368;2022-12-29T07:41:30;12.77;;;4.25;;
44147;SDS011;29810;55.848;37.368;2022-12-29T07:44:34;11.55;;;4.20;;
44147;SDS011;29810;55.848;37.368;2022-12-29T07:47:39;7.18;;;3.50;;
44147;SDS011;29810;55.848;37.368;2022-12-29T07:50:40;8.50;;;3.50;;
44147;SDS011;29810;55.848;37.368;2022-12-29T07:53:42;7.47;;;3.35;;
44147;SDS011;29810;55.848;37.368;2022-12-29T07:56:44;5.82;;;3.40;;
44147;SDS011;29810;55.848;37.368;2022-12-29T08:00:19;10.23;;;4.28;;
44147;SDS011;29810;55.848;37.368;2022-12-29T08:03:22;9.38;;;4.30;;
44147;SDS011;29810;55.848;37.368;2022-12-29T08:06:24;8.18;;;3.60;;
44147;SDS011;29810;55.848;37.368;2022-12-29T08:10:37;10.20;;;3.50;;
44147;SDS011;29810;55.848;37.368;2022-12-29T08:14:16;8.65;;;3.65;;
44147;SDS011;29810;55.848;37.368;2022-12-29T08:17:23;8.40;;;4.00;;
44147;SDS011;29810;55.848;37.368;2022-12-29T08:20:25;7.32;;;3.72;;
44147;SDS011;29810;55.848;37.368;2022-12-29T08:23:59;9.93;;;3.75;;
44147;SDS011;29810;55.848;37.368;2022-12-29T08:27:18;6.50;;;3.60;;
44147;SDS011;29810;55.848;37.368;2022-12-29T08:31:31;7.70;;;3.60;;
44147;SDS011;29810;55.848;37.368;2022-12-29T08:34:41;12.13;;;4.18;;
44147;SDS011;29810;55.848;37.368;2022-12-29T08:38:53;6.57;;;3.90;;
44147;SDS011;29810;55.848;37.368;2022-12-29T08:42:15;7.15;;;3.58;;
44147;SDS011;29810;55.848;37.368;2022-12-29T08:45:17;8.80;;;3.97;;
44147;SDS011;29810;55.848;37.368;2022-12-29T08:48:20;7.45;;;4.05;;
44147;SDS011;29810;55.848;37.368;2022-12-29T08:51:23;9.50;;;4.30;;
44147;SDS011;29810;55.848;37.368;2022-12-29T08:54:24;10.63;;;4.60;;
44147;SDS011;29810;55.848;37.368;2022-12-29T08:57:28;9.77;;;4.90;;
44147;SDS011;29810;55.848;37.368;2022-12-29T09:00:31;7.47;;;4.47;;
44147;SDS011;29810;55.848;37.368;2022-12-29T09:03:32;10.40;;;4.47;;
44147;SDS011;29810;55.848;37.368;2022-12-29T09:07:35;9.60;;;4.43;;
44147;SDS011;29810;55.848;37.368;2022-12-29T09:10:37;11.02;;;4.40;;
44147;SDS011;29810;55.848;37.368;2022-12-29T09:13:39;8.07;;;4.40;;
44147;SDS011;29810;55.848;37.368;2022-12-29T09:16:41;9.77;;;4.80;;
44147;SDS011;29810;55.848;37.368;2022-12-29T09:20:01;9.13;;;5.10;;
44147;SDS011;29810;55.848;37.368;2022-12-29T09:23:04;8.63;;;5.22;;
44147;SDS011;29810;55.848;37.368;2022-12-29T09:26:22;10.10;;;5.05;;
44147;SDS011;29810;55.848;37.368;2022-12-29T09:29:24;11.85;;;5.40;;
44147;SDS011;29810;55.848;37.368;2022-12-29T09:32:25;10.52;;;5.07;;
44147;SDS011;29810;55.848;37.368;2022-12-29T09:35:27;10.15;;;5.10;;
44147;SDS011;29810;55.848;37.368;2022-12-29T09:38:28;13.50;;;4.82;;
44147;SDS011;29810;55.848;37.368;2022-12-29T09:41:34;10.95;;;4.80;;
44147;SDS011;29810;55.848;37.368;2022-12-29T09:48:11;7.75;;;5.03;;
44147;SDS011;29810;55.848;37.368;2022-12-29T09:51:21;9.57;;;5.37;;
44147;SDS011;29810;55.848;37.368;2022-12-29T09:54:30;10.52;;;5.62;;
44147;SDS011;29810;55.848;37.368;2022-12-29T10:04:01;9.98;;;6.60;;
44147;SDS011;29810;55.848;37.368;2022-12-29T10:07:26;13.90;;;7.37;;
44147;SDS011;29810;55.848;37.368;2022-12-29T10:10:43;13.98;;;7.68;;
44147;SDS011;29810;55.848;37.368;2022-12-29T10:17:27;12.23;;;6.95;;
44147;SDS011;29810;55.848;37.368;2022-12-29T10:24:01;11.50;;;7.50;;
44147;SDS011;29810;55.848;37.368;2022-12-29T10:27:15;12.20;;;7.53;;
44147;SDS011;29810;55.848;37.368;2022-12-29T10:30:19;13.85;;;8.00;;
44147;SDS011;29810;55.848;37.368;2022-12-29T10:33:21;10.85;;;7.35;;
44147;SDS011;29810;55.848;37.368;2022-12-29T10:36:44;10.88;;;7.68;;
44147;SDS011;29810;55.848;37.368;2022-12-29T10:39:50;12.23;;;7.40;;
44147;SDS011;29810;55.848;37.368;2022-12-29T10:42:56;13.30;;;7.68;;
44147;SDS011;29810;55.848;37.368;2022-12-29T10:46:00;13.60;;;7.22;;
44147;SDS011;29810;55.848;37.368;2022-12-29T10:49:09;12.13;;;7.32;;
44147;SDS011;29810;55.848;37.368;2022-12-29T10:52:17;11.40;;;7.30;;
44147;SDS011;29810;55.848;37.368;2022-12-29T10:55:23;11.77;;;7.05;;
44147;SDS011;29810;55.848;37.368;2022-12-29T10:58:28;11.90;;;7.30;;
44147;SDS011;29810;55.848;37.368;2022-12-29T11:01:37;10.98;;;7.28;;
44147;SDS011;29810;55.848;37.368;2022-12-29T11:08:36;13.25;;;7.32;;
44147;SDS011;29810;55.848;37.368;2022-12-29T11:11:41;12.25;;;7.25;;
44147;SDS011;29810;55.848;37.368;2022-12-29T11:14:44;12.93;;;7.35;;
44147;SDS011;29810;55.848;37.368;2022-12-29T11:17:46;12.07;;;7.35;;
44147;SDS011;29810;55.848;37.368;2022-12-29T11:20:55;10.63;;;7.70;;
44147;SDS011;29810;55.848;37.368;2022-12-29T11:24:03;13.68;;;8.45;;
44147;SDS011;29810;55.848;37.368;2022-12-29T11:27:13;11.57;;;7.65;;
44147;SDS011;29810;55.848;37.368;2022-12-29T11:30:24;13.10;;;7.80;;
44147;SDS011;29810;55.848;37.368;2022-12-29T11:33:30;13.88;;;8.40;;
44147;SDS011;29810;55.848;37.368;2022-12-29T11:36:33;13.75;;;8.50;;
44147;SDS011;29810;55.848;37.368;2022-12-29T11:43:05;11.90;;;8.00;;
44147;SDS011;29810;55.848;37.368;2022-12-29T11:46:16;11.20;;;7.50;;
44147;SDS011;29810;55.848;37.368;2022-12-29T11:49:22;12.68;;;8.10;;
44147;SDS011;29810;55.848;37.368;2022-12-29T11:52:26;12.75;;;7.70;;
44147;SDS011;29810;55.848;37.368;2022-12-29T11:55:34;13.57;;;7.80;;
44147;SDS011;29810;55.848;37.368;2022-12-29T11:58:36;15.02;;;7.75;;
44147;SDS011;29810;55.848;37.368;2022-12-29T12:01:39;10.93;;;6.85;;
44147;SDS011;29810;55.848;37.368;2022-12-29T12:04:44;10.40;;;6.50;;
44147;SDS011;29810;55.848;37.368;2022-12-29T12:07:46;12.93;;;7.28;;
44147;SDS011;29810;55.848;37.368;2022-12-29T12:20:54;11.40;;;6.93;;
44147;SDS011;29810;55.848;37.368;2022-12-29T12:27:33;11.50;;;6.87;;
44147;SDS011;29810;55.848;37.368;2022-12-29T12:30:46;9.57;;;6.18;;
44147;SDS011;29810;55.848;37.368;2022-12-29T12:33:53;9.73;;;6.47;;
44147;SDS011;29810;55.848;37.368;2022-12-29T12:40:14;12.63;;;6.45;;
44147;SDS011;29810;55.848;37.368;2022-12-29T12:43:51;10.27;;;6.65;;
44147;SDS011;29810;55.848;37.368;2022-12-29T13:00:16;18.27;;;8.63;;
44147;SDS011;29810;55.848;37.368;2022-12-29T13:10:27;19.70;;;8.80;;
44147;SDS011;29810;55.848;37.368;2022-12-29T13:24:12;16.95;;;9.38;;
44147;SDS011;29810;55.848;37.368;2022-12-29T13:30:17;17.23;;;9.18;;
44147;SDS011;29810;55.848;37.368;2022-12-29T13:33:48;19.17;;;8.73;;
44147;SDS011;29810;55.848;37.368;2022-12-29T13:36:47;17.92;;;9.23;;
44147;SDS011;29810;55.848;37.368;2022-12-29T13:39:59;19.17;;;11.00;;
44147;SDS011;29810;55.848;37.368;2022-12-29T13:43:06;22.00;;;9.77;;
44147;SDS011;29810;55.848;37.368;2022-12-29T13:46:21;20.17;;;10.55;;
44147;SDS011;29810;55.848;37.368;2022-12-29T13:49:28;16.50;;;9.75;;
44147;SDS011;29810;55.848;37.368;2022-12-29T13:55:49;21.92;;;11.07;;
44147;SDS011;29810;55.848;37.368;2022-12-29T13:58:58;19.98;;;10.10;;
44147;SDS011;29810;55.848;37.368;2022-12-29T14:02:08;22.45;;;10.48;;
44147;SDS011;29810;55.848;37.368;2022-12-29T14:08:22;23.58;;;10.65;;
44147;SDS011;29810;55.848;37.368;2022-12-29T14:11:34;18.98;;;10.35;;
44147;SDS011;29810;55.848;37.368;2022-12-29T14:14:38;20.75;;;10.85;;
44147;SDS011;29810;55.848;37.368;2022-12-29T14:17:40;19.87;;;11.02;;
44147;SDS011;29810;55.848;37.368;2022-12-29T14:23:50;16.48;;;10.40;;
44147;SDS011;29810;55.848;37.368;2022-12-29T14:26:52;15.18;;;9.98;;
44147;SDS011;29810;55.848;37.368;2022-12-29T14:29:54;17.62;;;10.80;;
44147;SDS011;29810;55.848;37.368;2022-12-29T14:33:02;17.52;;;10.40;;
44147;SDS011;29810;55.848;37.368;2022-12-29T14:36:29;18.00;;;10.95;;
44147;SDS011;29810;55.848;37.368;2022-12-29T14:39:39;18.45;;;10.50;;
44147;SDS011;29810;55.848;37.368;2022-12-29T14:42:42;17.77;;;10.07;;
44147;SDS011;29810;55.848;37.368;2022-12-29T14:45:48;17.75;;;10.52;;
44147;SDS011;29810;55.848;37.368;2022-12-29T14:48:56;17.05;;;10.07;;
44147;SDS011;29810;55.848;37.368;2022-12-29T14:52:05;22.17;;;10.98;;
44147;SDS011;29810;55.848;37.368;2022-12-29T14:58:24;22.00;;;11.93;;
44147;SDS011;29810;55.848;37.368;2022-12-29T15:01:36;18.70;;;10.63;;
44147;SDS011;29810;55.848;37.368;2022-12-29T15:04:41;22.60;;;11.15;;
44147;SDS011;29810;55.848;37.368;2022-12-29T15:07:44;21.37;;;12.27;;
44147;SDS011;29810;55.848;37.368;2022-12-29T15:10:56;20.05;;;12.40;;
44147;SDS011;29810;55.848;37.368;2022-12-29T15:14:02;21.02;;;12.63;;
44147;SDS011;29810;55.848;37.368;2022-12-29T15:17:20;22.98;;;12.60;;
44147;SDS011;29810;55.848;37.368;2022-12-29T15:20:29;30.02;;;13.25;;
44147;SDS011;29810;55.848;37.368;2022-12-29T15:23:32;23.92;;;14.35;;
44147;SDS011;29810;55.848;37.368;2022-12-29T15:26:41;23.87;;;13.10;;
44147;SDS011;29810;55.848;37.368;2022-12-29T15:29:46;22.95;;;13.55;;
44147;SDS011;29810;55.848;37.368;2022-12-29T15:32:49;23.25;;;12.60;;
44147;SDS011;29810;55.848;37.368;2022-12-29T15:35:51;27.00;;;13.50;;
44147;SDS011;29810;55.848;37.368;2022-12-29T15:38:56;22.85;;;13.73;;
44147;SDS011;29810;55.848;37.368;2022-12-29T15:45:40;23.52;;;12.00;;
44147;SDS011;29810;55.848;37.368;2022-12-29T15:48:41;24.05;;;13.77;;
44147;SDS011;29810;55.848;37.368;2022-12-29T15:51:45;33.53;;;13.10;;
44147;SDS011;29810;55.848;37.368;2022-12-29T15:54:50;20.37;;;11.88;;
44147;SDS011;29810;55.848;37.368;2022-12-29T15:57:55;25.05;;;12.15;;
44147;SDS011;29810;55.848;37.368;2022-12-29T16:00:59;29.80;;;13.23;;
44147;SDS011;29810;55.848;37.368;2022-12-29T16:04:04;25.40;;;12.55;;
44147;SDS011;29810;55.848;37.368;2022-12-29T16:07:21;20.02;;;12.80;;
44147;SDS011;29810;55.848;37.368;2022-12-29T16:13:39;23.27;;;11.60;;
44147;SDS011;29810;55.848;37.368;2022-12-29T16:16:43;22.92;;;12.75;;
44147;SDS011;29810;55.848;37.368;2022-12-29T16:19:50;30.83;;;13.73;;
44147;SDS011;29810;55.848;37.368;2022-12-29T16:22:55;28.90;;;13.35;;
44147;SDS011;29810;55.848;37.368;2022-12-29T16:25:58;24.70;;;13.13;;
44147;SDS011;29810;55.848;37.368;2022-12-29T16:29:01;25.10;;;14.13;;
44147;SDS011;29810;55.848;37.368;2022-12-29T16:32:24;23.52;;;13.73;;
44147;SDS011;29810;55.848;37.368;2022-12-29T16:35:28;25.23;;;13.32;;
44147;SDS011;29810;55.848;37.368;2022-12-29T16:38:40;24.63;;;13.88;;
44147;SDS011;29810;55.848;37.368;2022-12-29T16:41:43;23.23;;;13.07;;
44147;SDS011;29810;55.848;37.368;2022-12-29T16:44:44;26.67;;;13.70;;
44147;SDS011;29810;55.848;37.368;2022-12-29T16:47:47;24.77;;;14.60;;
44147;SDS011;29810;55.848;37.368;2022-12-29T16:51:16;26.02;;;14.00;;
44147;SDS011;29810;55.848;37.368;2022-12-29T16:54:23;24.80;;;13.98;;
44147;SDS011;29810;55.848;37.368;2022-12-29T16:57:28;24.17;;;14.07;;
44147;SDS011;29810;55.848;37.368;2022-12-29T17:00:36;28.73;;;14.77;;
44147;SDS011;29810;55.848;37.368;2022-12-29T17:03:38;24.83;;;14.48;;
44147;SDS011;29810;55.848;37.368;2022-12-29T17:06:47;25.65;;;14.82;;
44147;SDS011;29810;55.848;37.368;2022-12-29T17:09:49;25.62;;;14.48;;
44147;SDS011;29810;55.848;37.368;2022-12-29T17:12:51;26.50;;;14.52;;
44147;SDS011;29810;55.848;37.368;2022-12-29T17:15:53;25.62;;;15.50;;
44147;SDS011;29810;55.848;37.368;2022-12-29T17:18:54;24.77;;;14.50;;
44147;SDS011;29810;55.848;37.368;2022-12-29T17:21:56;26.62;;;14.85;;
44147;SDS011;29810;55.848;37.368;2022-12-29T17:24:59;28.17;;;14.35;;
44147;SDS011;29810;55.848;37.368;2022-12-29T17:28:18;32.13;;;16.15;;
44147;SDS011;29810;55.848;37.368;2022-12-29T17:31:24;28.25;;;15.75;;
44147;SDS011;29810;55.848;37.368;2022-12-29T17:34:27;33.08;;;15.52;;
44147;SDS011;29810;55.848;37.368;2022-12-29T17:37:31;26.58;;;14.75;;
44147;SDS011;29810;55.848;37.368;2022-12-29T17:40:32;31.02;;;16.42;;
44147;SDS011;29810;55.848;37.368;2022-12-29T17:43:37;29.42;;;15.30;;
44147;SDS011;29810;55.848;37.368;2022-12-29T17:46:39;32.13;;;17.27;;
44147;SDS011;29810;55.848;37.368;2022-12-29T17:49:41;33.20;;;18.12;;
44147;SDS011;29810;55.848;37.368;2022-12-29T17:52:55;28.08;;;16.27;;
44147;SDS011;29810;55.848;37.368;2022-12-29T17:56:00;34.53;;;17.00;;
44147;SDS011;29810;55.848;37.368;2022-12-29T17:59:01;35.03;;;17.75;;
44147;SDS011;29810;55.848;37.368;2022-12-29T18:02:05;36.50;;;17.48;;
44147;SDS011;29810;55.848;37.368;2022-12-29T18:05:23;33.00;;;17.27;;
44147;SDS011;29810;55.848;37.368;2022-12-29T18:08:27;31.25;;;17.50;;
44147;SDS011;29810;55.848;37.368;2022-12-29T18:11:30;36.40;;;19.35;;
44147;SDS011;29810;55.848;37.368;2022-12-29T18:14:31;31.92;;;18.00;;
44147;SDS011;29810;55.848;37.368;2022-12-29T18:17:34;36.55;;;18.00;;
44147;SDS011;29810;55.848;37.368;2022-12-29T18:20:36;35.72;;;19.33;;
44147;SDS011;29810;55.848;37.368;2022-12-29T18:23:39;36.08;;;18.45;;
44147;SDS011;29810;55.848;37.368;2022-12-29T18:26:40;35.08;;;19.40;;
44147;SDS011;29810;55.848;37.368;2022-12-29T18:29:42;35.95;;;18.52;;
44147;SDS011;29810;55.848;37.368;2022-12-29T18:32:43;38.55;;;18.55;;
44147;SDS011;29810;55.848;37.368;2022-12-29T18:35:56;39.63;;;19.85;;
44147;SDS011;29810;55.848;37.368;2022-12-29T18:38:58;38.00;;;19.62;;
44147;SDS011;29810;55.848;37.368;2022-12-29T18:42:02;40.28;;;20.33;;
44147;SDS011;29810;55.848;37.368;2022-12-29T18:45:21;36.50;;;19.08;;
44147;SDS011;29810;55.848;37.368;2022-12-29T18:48:25;43.03;;;21.58;;
44147;SDS011;29810;55.848;37.368;2022-12-29T18:51:26;43.97;;;19.95;;
44147;SDS011;29810;55.848;37.368;2022-12-29T18:54:30;33.70;;;19.23;;
44147;SDS011;29810;55.848;37.368;2022-12-29T18:57:33;40.00;;;20.70;;
44147;SDS011;29810;55.848;37.368;2022-12-29T19:00:36;38.28;;;19.77;;
44147;SDS011;29810;55.848;37.368;2022-12-29T19:03:39;40.22;;;20.65;;
44147;SDS011;29810;55.848;37.368;2022-12-29T19:06:40;37.08;;;19.77;;
44147;SDS011;29810;55.848;37.368;2022-12-29T19:09:42;39.47;;;20.23;;
44147;SDS011;29810;55.848;37.368;2022-12-29T19:12:44;45.22;;;22.00;;
44147;SDS011;29810;55.848;37.368;2022-12-29T19:15:46;41.78;;;21.60;;
44147;SDS011;29810;55.848;37.368;2022-12-29T19:18:48;41.03;;;21.75;;
44147;SDS011;29810;55.848;37.368;2022-12-29T19:21:50;47.72;;;23.38;;
44147;SDS011;29810;55.848;37.368;2022-12-29T19:24:56;45.03;;;23.12;;
44147;SDS011;29810;55.848;37.368;2022-12-29T19:27:58;41.25;;;21.83;;
44147;SDS011;29810;55.848;37.368;2022-12-29T19:31:01;39.38;;;21.92;;
44147;SDS011;29810;55.848;37.368;2022-12-29T19:34:03;45.70;;;22.95;;
44147;SDS011;29810;55.848;37.368;2022-12-29T19:37:04;41.28;;;22.42;;
44147;SDS011;29810;55.848;37.368;2022-12-29T19:40:07;42.17;;;22.60;;
44147;SDS011;29810;55.848;37.368;2022-12-29T19:43:11;46.65;;;23.80;;
44147;SDS011;29810;55.848;37.368;2022-12-29T19:46:14;46.08;;;22.87;;
44147;SDS011;29810;55.848;37.368;2022-12-29T19:52:22;45.38;;;22.75;;
44147;SDS011;29810;55.848;37.368;2022-12-29T19:55:24;45.60;;;23.95;;
44147;SDS011;29810;55.848;37.368;2022-12-29T19:58:26;46.78;;;24.10;;
44147;SDS011;29810;55.848;37.368;2022-12-29T20:01:28;45.22;;;23.02;;
44147;SDS011;29810;55.848;37.368;2022-12-29T20:04:30;46.40;;;24.48;;
44147;SDS011;29810;55.848;37.368;2022-12-29T20:07:33;39.50;;;22.70;;
44147;SDS011;29810;55.848;37.368;2022-12-29T20:10:36;51.08;;;23.90;;
44147;SDS011;29810;55.848;37.368;2022-12-29T20:13:38;44.28;;;23.58;;
44147;SDS011;29810;55.848;37.368;2022-12-29T20:16:40;45.30;;;24.12;;
44147;SDS011;29810;55.848;37.368;2022-12-29T20:19:42;45.78;;;24.12;;
44147;SDS011;29810;55.848;37.368;2022-12-29T20:22:44;42.45;;;23.02;;
44147;SDS011;29810;55.848;37.368;2022-12-29T20:25:52;41.85;;;22.92;;